sensor_id;sensor_type;location;lat;lon;timestamp;pressure;altitude;pressure_sealevel;temperature;humidity
29433;BME280;16405;53.964;13.448;2023-02-22T00:00:51;101271.97;;;1.92;100.00
29433;BME280;16405;53.964;13.448;2023-02-22T00:03:29;101265.91;;;1.94;100.00
29433;BME280;16405;53.964;13.448;2023-02-22T00:06:05;101276.28;;;1.94;100.00
29433;BME280;16405;53.964;13.448;2023-02-22T00:08:36;101278.03;;;1.97;100.00
29433;BME280;16405;53.964;13.448;2023-02-22T00:11:05;101277.16;;;2.01;100.00
29433;BME280;16405;53.964;13.448;2023-02-22T00:13:36;101281.44;;;2.05;100.00
29433;BME280;16405;53.964;13.448;2023-02-22T00:16:03;101272.81;;;2.04;100.00
29433;BME280;16405;53.964;13.448;2023-02-22T00:18:29;101278.88;;;2.10;100.00
29433;BME280;16405;53.964;13.448;2023-02-22T00:20:56;101280.56;;;2.15;100.00
29433;BME280;16405;53.964;13.448;2023-02-22T00:23:29;101276.25;;;2.13;100.00
29433;BME280;16405;53.964;13.448;2023-02-22T00:25:57;101272.75;;;2.14;100.00
29433;BME280;16405;53.964;13.448;2023-02-22T00:28:24;101270.19;;;2.15;100.00
29433;BME280;16405;53.964;13.448;2023-02-22T00:30:50;101277.09;;;2.13;100.00
29433;BME280;16405;53.964;13.448;2023-02-22T00:33:24;101278.00;;;2.11;100.00
29433;BME280;16405;53.964;13.448;2023-02-22T00:35:50;101279.72;;;2.10;100.00
29433;BME280;16405;53.964;13.448;2023-02-22T00:38:18;101274.50;;;2.16;100.00
29433;BME280;16405;53.964;13.448;2023-02-22T00:40:48;101277.09;;;2.27;100.00
29433;BME280;16405;53.964;13.448;2023-02-22T00:43:14;101275.34;;;2.28;100.00
29433;BME280;16405;53.964;13.448;2023-02-22T00:45:40;101277.94;;;2.24;100.00
29433;BME280;16405;53.964;13.448;2023-02-22T00:48:08;101276.19;;;2.28;100.00
29433;BME280;16405;53.964;13.448;2023-02-22T00:50:34;101276.19;;;2.26;100.00
29433;BME280;16405;53.964;13.448;2023-02-22T00:53:09;101274.44;;;2.29;100.00
29433;BME280;16405;53.964;13.448;2023-02-22T00:55:37;101275.34;;;2.24;100.00
29433;BME280;16405;53.964;13.448;2023-02-22T00:58:06;101275.31;;;2.32;100.00
29433;BME280;16405;53.964;13.448;2023-02-22T01:00:39;101276.22;;;2.23;100.00
29433;BME280;16405;53.964;13.448;2023-02-22T01:03:10;101271.88;;;2.24;100.00
29433;BME280;16405;53.964;13.448;2023-02-22T01:05:39;101275.34;;;2.21;100.00
29433;BME280;16405;53.964;13.448;2023-02-22T01:08:08;101277.97;;;2.15;100.00
29433;BME280;16405;53.964;13.448;2023-02-22T01:10:35;101280.53;;;2.28;100.00
29433;BME280;16405;53.964;13.448;2023-02-22T01:13:02;101275.34;;;2.21;100.00
29433;BME280;16405;53.964;13.448;2023-02-22T01:15:34;101278.84;;;2.19;100.00
29433;BME280;16405;53.964;13.448;2023-02-22T01:18:11;101279.69;;;2.21;100.00
29433;BME280;16405;53.964;13.448;2023-02-22T01:20:37;101282.25;;;2.32;100.00
29433;BME280;16405;53.964;13.448;2023-02-22T01:23:05;101279.59;;;2.39;100.00
29433;BME280;16405;53.964;13.448;2023-02-22T01:25:35;101282.19;;;2.47;100.00
29433;BME280;16405;53.964;13.448;2023-02-22T01:28:04;101277.00;;;2.44;100.00
29433;BME280;16405;53.964;13.448;2023-02-22T01:30:33;101272.66;;;2.43;100.00
29433;BME280;16405;53.964;13.448;2023-02-22T01:33:05;101266.63;;;2.42;100.00
29433;BME280;16405;53.964;13.448;2023-02-22T01:35:36;101270.94;;;2.45;100.00
29433;BME280;16405;53.964;13.448;2023-02-22T01:38:08;101277.81;;;2.55;100.00
29433;BME280;16405;53.964;13.448;2023-02-22T01:40:41;101281.22;;;2.63;100.00
29433;BME280;16405;53.964;13.448;2023-02-22T01:43:25;101278.59;;;2.70;100.00
29433;BME280;16405;53.964;13.448;2023-02-22T01:46:15;101274.28;;;2.67;100.00
29433;BME280;16405;53.964;13.448;2023-02-22T01:48:59;101274.31;;;2.64;100.00
29433;BME280;16405;53.964;13.448;2023-02-22T01:51:39;101269.13;;;2.62;100.00
29433;BME280;16405;53.964;13.448;2023-02-22T01:54:16;101271.69;;;2.70;100.00
29433;BME280;16405;53.964;13.448;2023-02-22T01:57:17;101281.19;;;2.79;100.00
29433;BME280;16405;53.964;13.448;2023-02-22T01:59:50;101278.56;;;2.79;100.00
29433;BME280;16405;53.964;13.448;2023-02-22T02:02:17;101278.56;;;2.76;100.00
29433;BME280;16405;53.964;13.448;2023-02-22T02:04:55;101269.06;;;2.72;100.00
29433;BME280;16405;53.964;13.448;2023-02-22T02:07:23;101272.53;;;2.77;100.00
29433;BME280;16405;53.964;13.448;2023-02-22T02:10:10;101269.88;;;2.81;100.00
29433;BME280;16405;53.964;13.448;2023-02-22T02:12:49;101275.06;;;2.83;100.00
29433;BME280;16405;53.964;13.448;2023-02-22T02:15:26;101274.19;;;2.84;100.00
29433;BME280;16405;53.964;13.448;2023-02-22T02:17:57;101275.06;;;2.86;100.00
29433;BME280;16405;53.964;13.448;2023-02-22T02:38:53;101269.84;;;2.84;100.00
29433;BME280;16405;53.964;13.448;2023-02-22T02:44:15;101272.41;;;2.92;100.00
29433;BME280;16405;53.964;13.448;2023-02-22T02:47:00;101275.09;;;2.81;100.00
29433;BME280;16405;53.964;13.448;2023-02-22T02:49:41;101275.06;;;2.83;100.00
29433;BME280;16405;53.964;13.448;2023-02-22T02:52:20;101276.78;;;2.92;100.00
29433;BME280;16405;53.964;13.448;2023-02-22T02:54:48;101266.41;;;2.84;100.00
29433;BME280;16405;53.964;13.448;2023-02-22T02:57:15;101270.78;;;2.79;100.00
29433;BME280;16405;53.964;13.448;2023-02-22T02:59:43;101275.91;;;2.90;100.00
29433;BME280;16405;53.964;13.448;2023-02-22T03:08:00;101276.78;;;2.90;100.00
29433;BME280;16405;53.964;13.448;2023-02-22T03:13:16;101261.25;;;2.75;100.00
29433;BME280;16405;53.964;13.448;2023-02-22T03:16:09;101271.56;;;2.87;100.00
29433;BME280;16405;53.964;13.448;2023-02-22T03:22:11;101259.59;;;2.61;100.00
29433;BME280;16405;53.964;13.448;2023-02-22T03:27:31;101268.09;;;2.88;100.00
29433;BME280;16405;53.964;13.448;2023-02-22T03:30:07;101268.06;;;2.93;100.00
29433;BME280;16405;53.964;13.448;2023-02-22T03:32:38;101256.06;;;2.75;100.00
29433;BME280;16405;53.964;13.448;2023-02-22T03:35:13;101262.94;;;2.82;100.00
29433;BME280;16405;53.964;13.448;2023-02-22T03:37:49;101260.38;;;2.79;100.00
29433;BME280;16405;53.964;13.448;2023-02-22T03:40:41;101269.91;;;2.74;100.00
29433;BME280;16405;53.964;13.448;2023-02-22T03:43:14;101268.13;;;2.82;100.00
29433;BME280;16405;53.964;13.448;2023-02-22T03:45:43;101258.63;;;2.81;100.00
29433;BME280;16405;53.964;13.448;2023-02-22T03:48:49;101268.09;;;2.88;100.00
29433;BME280;16405;53.964;13.448;2023-02-22T03:51:18;101268.97;;;2.90;100.00
29433;BME280;16405;53.964;13.448;2023-02-22T03:53:45;101269.81;;;2.89;100.00
29433;BME280;16405;53.964;13.448;2023-02-22T03:56:30;101265.50;;;2.86;100.00
29433;BME280;16405;53.964;13.448;2023-02-22T03:59:06;101272.47;;;2.86;100.00
29433;BME280;16405;53.964;13.448;2023-02-22T04:01:41;101263.75;;;2.87;100.00
29433;BME280;16405;53.964;13.448;2023-02-22T04:04:07;101269.84;;;2.83;100.00
29433;BME280;16405;53.964;13.448;2023-02-22T04:06:33;101280.25;;;2.86;100.00
29433;BME280;16405;53.964;13.448;2023-02-22T04:09:01;101279.38;;;2.90;100.00
29433;BME280;16405;53.964;13.448;2023-02-22T04:11:29;101282.88;;;2.87;100.00
29433;BME280;16405;53.964;13.448;2023-02-22T04:13:55;101282.00;;;2.84;100.00
29433;BME280;16405;53.964;13.448;2023-02-22T04:16:21;101280.25;;;2.83;100.00
29433;BME280;16405;53.964;13.448;2023-02-22T04:18:47;101282.94;;;2.72;100.00
29433;BME280;16405;53.964;13.448;2023-02-22T04:21:13;101284.72;;;2.64;100.00
29433;BME280;16405;53.964;13.448;2023-02-22T04:23:46;101282.09;;;2.70;100.00
29433;BME280;16405;53.964;13.448;2023-02-22T04:26:12;101278.56;;;2.76;100.00
29433;BME280;16405;53.964;13.448;2023-02-22T04:28:38;101278.59;;;2.73;100.00
29433;BME280;16405;53.964;13.448;2023-02-22T04:31:04;101279.47;;;2.72;100.00
29433;BME280;16405;53.964;13.448;2023-02-22T04:33:30;101283.81;;;2.63;100.00
29433;BME280;16405;53.964;13.448;2023-02-22T04:36:05;101288.13;;;2.75;100.00
29433;BME280;16405;53.964;13.448;2023-02-22T04:38:32;101292.50;;;2.69;100.00
29433;BME280;16405;53.964;13.448;2023-02-22T04:41:03;101282.97;;;2.63;100.00
29433;BME280;16405;53.964;13.448;2023-02-22T04:43:28;101281.22;;;2.66;100.00
29433;BME280;16405;53.964;13.448;2023-02-22T04:45:54;101275.16;;;2.67;100.00
29433;BME280;16405;53.964;13.448;2023-02-22T04:48:20;101278.63;;;2.63;100.00
29433;BME280;16405;53.964;13.448;2023-02-22T04:50:46;101276.88;;;2.70;100.00
29433;BME280;16405;53.964;13.448;2023-02-22T04:53:12;101278.63;;;2.66;100.00
29433;BME280;16405;53.964;13.448;2023-02-22T04:55:45;101290.75;;;2.71;100.00
29433;BME280;16405;53.964;13.448;2023-02-22T04:58:11;101276.88;;;2.75;100.00
29433;BME280;16405;53.964;13.448;2023-02-22T05:00:37;101282.06;;;2.75;100.00
29433;BME280;16405;53.964;13.448;2023-02-22T05:03:03;101282.97;;;2.66;100.00
29433;BME280;16405;53.964;13.448;2023-02-22T05:05:29;101275.97;;;2.76;100.00
29433;BME280;16405;53.964;13.448;2023-02-22T05:07:55;101280.28;;;2.78;100.00
29433;BME280;16405;53.964;13.448;2023-02-22T05:10:23;101281.19;;;2.71;100.00
29433;BME280;16405;53.964;13.448;2023-02-22T05:12:49;101285.50;;;2.80;100.00
29433;BME280;16405;53.964;13.448;2023-02-22T05:15:19;101278.50;;;2.90;100.00
29433;BME280;16405;53.964;13.448;2023-02-22T05:17:45;101281.09;;;2.93;100.00
29433;BME280;16405;53.964;13.448;2023-02-22T05:20:28;101283.69;;;2.91;100.00
29433;BME280;16405;53.964;13.448;2023-02-22T05:22:55;101286.31;;;2.90;100.00
29433;BME280;16405;53.964;13.448;2023-02-22T05:25:22;101286.25;;;2.97;100.00
29433;BME280;16405;53.964;13.448;2023-02-22T05:27:53;101276.69;;;2.99;100.00
29433;BME280;16405;53.964;13.448;2023-02-22T05:30:28;101278.56;;;2.76;100.00
29433;BME280;16405;53.964;13.448;2023-02-22T05:32:55;101275.16;;;2.72;100.00
29433;BME280;16405;53.964;13.448;2023-02-22T05:35:22;101271.66;;;2.75;100.00
29433;BME280;16405;53.964;13.448;2023-02-22T05:37:52;101278.63;;;2.65;100.00
29433;BME280;16405;53.964;13.448;2023-02-22T05:40:22;101283.81;;;2.70;100.00
29433;BME280;16405;53.964;13.448;2023-02-22T05:42:49;101287.25;;;2.75;100.00
29433;BME280;16405;53.964;13.448;2023-02-22T05:45:22;101286.34;;;2.80;100.00
29433;BME280;16405;53.964;13.448;2023-02-22T05:47:49;101293.28;;;2.81;100.00
29433;BME280;16405;53.964;13.448;2023-02-22T05:50:16;101290.75;;;2.69;100.00
29433;BME280;16405;53.964;13.448;2023-02-22T05:52:44;101296.81;;;2.73;100.00
29433;BME280;16405;53.964;13.448;2023-02-22T05:55:16;101292.50;;;2.69;100.00
29433;BME280;16405;53.964;13.448;2023-02-22T05:57:43;101301.16;;;2.67;100.00
29433;BME280;16405;53.964;13.448;2023-02-22T06:00:24;101287.31;;;2.61;100.00
29433;BME280;16405;53.964;13.448;2023-02-22T06:03:05;101294.28;;;2.57;100.00
29433;BME280;16405;53.964;13.448;2023-02-22T06:05:32;101289.97;;;2.53;100.00
29433;BME280;16405;53.964;13.448;2023-02-22T06:08:02;101291.72;;;2.46;100.00
29433;BME280;16405;53.964;13.448;2023-02-22T06:10:28;101299.56;;;2.42;100.00
29433;BME280;16405;53.964;13.448;2023-02-22T06:12:55;101301.28;;;2.35;100.00
29433;BME280;16405;53.964;13.448;2023-02-22T06:15:25;101309.97;;;2.33;100.00
29433;BME280;16405;53.964;13.448;2023-02-22T06:17:53;101304.81;;;2.17;100.00
29433;BME280;16405;53.964;13.448;2023-02-22T06:20:22;101306.56;;;2.06;100.00
29433;BME280;16405;53.964;13.448;2023-02-22T06:22:53;101311.78;;;2.00;100.00
29433;BME280;16405;53.964;13.448;2023-02-22T06:25:26;101309.19;;;1.88;100.00
29433;BME280;16405;53.964;13.448;2023-02-22T06:27:52;101305.75;;;1.78;100.00
29433;BME280;16405;53.964;13.448;2023-02-22T06:30:24;101301.44;;;1.78;100.00
29433;BME280;16405;53.964;13.448;2023-02-22T06:32:50;101319.59;;;1.80;100.00
29433;BME280;16405;53.964;13.448;2023-02-22T06:35:16;101310.94;;;1.76;100.00
29433;BME280;16405;53.964;13.448;2023-02-22T06:37:42;101317.88;;;1.82;100.00
29433;BME280;16405;53.964;13.448;2023-02-22T06:40:08;101319.56;;;1.92;100.00
29433;BME280;16405;53.964;13.448;2023-02-22T06:42:47;101320.47;;;1.99;100.00
29433;BME280;16405;53.964;13.448;2023-02-22T06:45:21;101311.78;;;1.92;100.00
29433;BME280;16405;53.964;13.448;2023-02-22T06:47:47;101318.69;;;2.07;100.00
29433;BME280;16405;53.964;13.448;2023-02-22T06:50:25;101323.84;;;2.25;100.00
29433;BME280;16405;53.964;13.448;2023-02-22T06:52:53;101322.91;;;2.48;100.00
29433;BME280;16405;53.964;13.448;2023-02-22T06:55:32;101339.97;;;3.07;100.00
29433;BME280;16405;53.964;13.448;2023-02-22T06:57:59;101352.44;;;4.66;100.00
29433;BME280;16405;53.964;13.448;2023-02-22T07:00:29;101351.59;;;5.29;95.08
29433;BME280;16405;53.964;13.448;2023-02-22T07:02:56;101360.16;;;5.97;90.08
29433;BME280;16405;53.964;13.448;2023-02-22T07:05:23;101364.78;;;6.74;85.41
29433;BME280;16405;53.964;13.448;2023-02-22T07:07:51;101363.66;;;7.64;81.42
29433;BME280;16405;53.964;13.448;2023-02-22T07:10:24;101362.00;;;7.59;78.42
29433;BME280;16405;53.964;13.448;2023-02-22T07:12:51;101354.53;;;6.63;78.89
29433;BME280;16405;53.964;13.448;2023-02-22T07:15:19;101352.50;;;5.27;82.08
29433;BME280;16405;53.964;13.448;2023-02-22T07:17:49;101357.63;;;4.71;85.47
29433;BME280;16405;53.964;13.448;2023-02-22T07:20:19;101348.94;;;3.85;89.53
29433;BME280;16405;53.964;13.448;2023-02-22T07:22:47;101352.50;;;3.78;91.95
29433;BME280;16405;53.964;13.448;2023-02-22T07:25:21;101354.38;;;3.58;93.99
29433;BME280;16405;53.964;13.448;2023-02-22T07:27:47;101350.19;;;3.38;95.67
29433;BME280;16405;53.964;13.448;2023-02-22T07:30:23;101354.56;;;3.33;97.53
29433;BME280;16405;53.964;13.448;2023-02-22T07:32:58;101351.28;;;2.97;98.77
29433;BME280;16405;53.964;13.448;2023-02-22T07:35:33;101354.00;;;2.79;100.00
29433;BME280;16405;53.964;13.448;2023-02-22T07:38:04;101356.63;;;2.73;100.00
29433;BME280;16405;53.964;13.448;2023-02-22T07:40:34;101356.66;;;2.60;100.00
29433;BME280;16405;53.964;13.448;2023-02-22T07:43:20;101361.06;;;2.37;100.00
29433;BME280;16405;53.964;13.448;2023-02-22T07:45:56;101358.47;;;2.24;100.00
29433;BME280;16405;53.964;13.448;2023-02-22T07:48:25;101361.06;;;2.38;100.00
29433;BME280;16405;53.964;13.448;2023-02-22T07:50:59;101365.41;;;2.35;100.00
29433;BME280;16405;53.964;13.448;2023-02-22T07:53:29;101354.19;;;2.20;100.00
29433;BME280;16405;53.964;13.448;2023-02-22T07:56:00;101364.53;;;2.26;100.00
29433;BME280;16405;53.964;13.448;2023-02-22T07:58:30;101368.84;;;2.49;100.00
29433;BME280;16405;53.964;13.448;2023-02-22T08:00:57;101373.09;;;2.65;100.00
29433;BME280;16405;53.964;13.448;2023-02-22T08:03:29;101367.16;;;2.36;100.00
29433;BME280;16405;53.964;13.448;2023-02-22T08:05:57;101368.91;;;2.29;100.00
29433;BME280;16405;53.964;13.448;2023-02-22T08:08:25;101374.97;;;2.31;100.00
29433;BME280;16405;53.964;13.448;2023-02-22T08:10:53;101374.06;;;2.40;100.00
29433;BME280;16405;53.964;13.448;2023-02-22T08:13:23;101387.03;;;2.49;100.00
29433;BME280;16405;53.964;13.448;2023-02-22T08:15:51;101382.69;;;2.51;100.00
29433;BME280;16405;53.964;13.448;2023-02-22T08:18:25;101383.56;;;2.53;100.00
29433;BME280;16405;53.964;13.448;2023-02-22T08:20:53;101387.91;;;2.51;100.00
29433;BME280;16405;53.964;13.448;2023-02-22T08:23:22;101382.66;;;2.60;100.00
29433;BME280;16405;53.964;13.448;2023-02-22T08:25:56;101384.38;;;2.64;100.00
29433;BME280;16405;53.964;13.448;2023-02-22T08:28:23;101381.81;;;2.61;100.00
29433;BME280;16405;53.964;13.448;2023-02-22T08:30:50;101384.38;;;2.71;100.00
29433;BME280;16405;53.964;13.448;2023-02-22T08:33:21;101382.56;;;2.85;100.00
29433;BME280;16405;53.964;13.448;2023-02-22T08:35:48;101393.81;;;2.95;100.00
29433;BME280;16405;53.964;13.448;2023-02-22T08:38:27;101384.34;;;2.67;100.00
29433;BME280;16405;53.964;13.448;2023-02-22T08:40:54;101380.03;;;2.66;100.00
29433;BME280;16405;53.964;13.448;2023-02-22T08:43:21;101383.53;;;2.55;100.00
29433;BME280;16405;53.964;13.448;2023-02-22T08:45:52;101380.06;;;2.68;100.00
29433;BME280;16405;53.964;13.448;2023-02-22T08:48:19;101380.03;;;2.63;100.00
29433;BME280;16405;53.964;13.448;2023-02-22T08:50:45;101387.75;;;2.93;100.00
29433;BME280;16405;53.964;13.448;2023-02-22T08:53:13;101389.44;;;3.01;100.00
29433;BME280;16405;53.964;13.448;2023-02-22T08:55:43;101392.81;;;3.17;100.00
29433;BME280;16405;53.964;13.448;2023-02-22T08:58:10;101390.19;;;3.26;100.00
29433;BME280;16405;53.964;13.448;2023-02-22T09:00:39;101389.28;;;3.26;100.00
29433;BME280;16405;53.964;13.448;2023-02-22T09:03:09;101389.22;;;3.41;100.00
29433;BME280;16405;53.964;13.448;2023-02-22T09:05:37;101385.91;;;3.12;100.00
29433;BME280;16405;53.964;13.448;2023-02-22T09:08:06;101392.84;;;3.13;100.00
29433;BME280;16405;53.964;13.448;2023-02-22T09:10:36;101385.84;;;3.24;100.00
29433;BME280;16405;53.964;13.448;2023-02-22T09:13:05;101383.16;;;3.38;100.00
29433;BME280;16405;53.964;13.448;2023-02-22T09:15:32;101387.53;;;3.33;100.00
29433;BME280;16405;53.964;13.448;2023-02-22T09:18:06;101396.25;;;3.24;100.00
29433;BME280;16405;53.964;13.448;2023-02-22T09:20:36;101385.88;;;3.16;100.00
29433;BME280;16405;53.964;13.448;2023-02-22T09:23:03;101387.53;;;3.33;100.00
29433;BME280;16405;53.964;13.448;2023-02-22T09:25:35;101393.50;;;3.45;100.00
29433;BME280;16405;53.964;13.448;2023-02-22T09:28:03;101380.53;;;3.42;100.00
29433;BME280;16405;53.964;13.448;2023-02-22T09:30:33;101397.81;;;3.49;100.00
29433;BME280;16405;53.964;13.448;2023-02-22T09:33:18;101394.47;;;3.35;100.00
29433;BME280;16405;53.964;13.448;2023-02-22T09:35:46;101390.09;;;3.42;100.00
29433;BME280;16405;53.964;13.448;2023-02-22T09:38:25;101392.50;;;3.69;100.00
29433;BME280;16405;53.964;13.448;2023-02-22T09:41:17;101397.56;;;3.86;100.00
29433;BME280;16405;53.964;13.448;2023-02-22T09:46:42;101404.41;;;3.97;100.00
29433;BME280;16405;53.964;13.448;2023-02-22T09:49:44;101405.19;;;4.09;100.00
29433;BME280;16405;53.964;13.448;2023-02-22T09:52:34;101408.38;;;4.41;100.00
29433;BME280;16405;53.964;13.448;2023-02-22T09:55:47;101403.44;;;4.11;100.00
29433;BME280;16405;53.964;13.448;2023-02-22T09:58:42;101410.50;;;3.97;100.00
29433;BME280;16405;53.964;13.448;2023-02-22T10:01:40;101413.75;;;4.22;100.00
29433;BME280;16405;53.964;13.448;2023-02-22T10:04:35;101404.28;;;4.12;100.00
29433;BME280;16405;53.964;13.448;2023-02-22T10:07:52;101395.78;;;3.92;100.00
29433;BME280;16405;53.964;13.448;2023-02-22T10:10:40;101397.69;;;3.71;100.00
29433;BME280;16405;53.964;13.448;2023-02-22T10:14:04;101394.00;;;3.97;100.00
29433;BME280;16405;53.964;13.448;2023-02-22T10:23:17;101391.34;;;4.01;100.00
29433;BME280;16405;53.964;13.448;2023-02-22T10:25:58;101398.34;;;3.98;100.00
29433;BME280;16405;53.964;13.448;2023-02-22T10:31:31;101403.91;;;4.52;100.00
29433;BME280;16405;53.964;13.448;2023-02-22T10:34:03;101395.22;;;4.50;100.00
29433;BME280;16405;53.964;13.448;2023-02-22T10:36:37;101394.16;;;4.66;100.00
29433;BME280;16405;53.964;13.448;2023-02-22T10:39:34;101395.00;;;4.68;100.00
29433;BME280;16405;53.964;13.448;2023-02-22T10:42:12;101395.59;;;4.92;100.00
29433;BME280;16405;53.964;13.448;2023-02-22T10:44:49;101390.69;;;4.67;100.00
29433;BME280;16405;53.964;13.448;2023-02-22T10:47:18;101391.44;;;4.77;100.00
29433;BME280;16405;53.964;13.448;2023-02-22T10:49:58;101386.56;;;4.48;100.00
29433;BME280;16405;53.964;13.448;2023-02-22T10:52:31;101374.47;;;4.41;100.00
29433;BME280;16405;53.964;13.448;2023-02-22T10:54:59;101377.88;;;4.46;100.00
29433;BME280;16405;53.964;13.448;2023-02-22T10:57:34;101374.31;;;4.53;100.00
29433;BME280;16405;53.964;13.448;2023-02-22T11:00:36;101373.28;;;4.66;100.00
29433;BME280;16405;53.964;13.448;2023-02-22T11:03:16;101368.84;;;4.78;100.00
29433;BME280;16405;53.964;13.448;2023-02-22T11:05:43;101378.19;;;4.94;100.00
29433;BME280;16405;53.964;13.448;2023-02-22T11:08:26;101369.50;;;4.93;100.00
29433;BME280;16405;53.964;13.448;2023-02-22T11:11:00;101366.56;;;4.47;100.00
29433;BME280;16405;53.964;13.448;2023-02-22T11:13:38;101356.72;;;4.70;100.00
29433;BME280;16405;53.964;13.448;2023-02-22T11:16:29;101357.50;;;4.79;100.00
29433;BME280;16405;53.964;13.448;2023-02-22T11:19:02;101358.94;;;5.03;100.00
29433;BME280;16405;53.964;13.448;2023-02-22T11:21:35;101355.81;;;4.75;100.00
29433;BME280;16405;53.964;13.448;2023-02-22T11:24:07;101358.91;;;5.06;100.00
29433;BME280;16405;53.964;13.448;2023-02-22T11:26:46;101357.22;;;5.00;100.00
29433;BME280;16405;53.964;13.448;2023-02-22T11:29:37;101353.19;;;4.78;100.00
29433;BME280;16405;53.964;13.448;2023-02-22T11:32:17;101350.25;;;5.01;100.00
29433;BME280;16405;53.964;13.448;2023-02-22T11:34:47;101348.03;;;4.71;100.00
29433;BME280;16405;53.964;13.448;2023-02-22T11:37:34;101351.75;;;4.52;100.00
29433;BME280;16405;53.964;13.448;2023-02-22T11:40:21;101344.13;;;4.34;100.00
29433;BME280;16405;53.964;13.448;2023-02-22T11:42:49;101354.31;;;4.55;100.00
29433;BME280;16405;53.964;13.448;2023-02-22T11:45:30;101342.66;;;4.84;100.00
29433;BME280;16405;53.964;13.448;2023-02-22T11:48:06;101346.09;;;4.86;100.00
29433;BME280;16405;53.964;13.448;2023-02-22T11:53:58;101341.81;;;4.82;100.00
29433;BME280;16405;53.964;13.448;2023-02-22T11:56:41;101337.47;;;4.81;100.00
29433;BME280;16405;53.964;13.448;2023-02-22T11:59:26;101342.59;;;4.88;100.00
29433;BME280;16405;53.964;13.448;2023-02-22T12:11:06;101338.72;;;4.49;100.00
29433;BME280;16405;53.964;13.448;2023-02-22T12:16:58;101336.00;;;4.60;100.00
29433;BME280;16405;53.964;13.448;2023-02-22T12:19:46;101336.75;;;4.68;100.00
29433;BME280;16405;53.964;13.448;2023-02-22T12:22:31;101333.44;;;4.57;100.00
29433;BME280;16405;53.964;13.448;2023-02-22T12:25:16;101331.81;;;4.46;100.00
29433;BME280;16405;53.964;13.448;2023-02-22T12:27:53;101331.06;;;4.37;100.00
29433;BME280;16405;53.964;13.448;2023-02-22T12:30:36;101333.56;;;4.47;100.00
29433;BME280;16405;53.964;13.448;2023-02-22T12:33:20;101334.41;;;4.49;100.00
29433;BME280;16405;53.964;13.448;2023-02-22T12:35:57;101329.84;;;4.65;100.00
29433;BME280;16405;53.964;13.448;2023-02-22T12:38:39;101329.97;;;4.53;100.00
29433;BME280;16405;53.964;13.448;2023-02-22T12:41:56;101331.00;;;4.43;100.00
29433;BME280;16405;53.964;13.448;2023-02-22T12:44:31;101329.19;;;4.45;100.00
29433;BME280;16405;53.964;13.448;2023-02-22T12:46:59;101316.88;;;4.59;100.00
29433;BME280;16405;53.964;13.448;2023-02-22T12:49:47;101315.06;;;4.64;100.00
29433;BME280;16405;53.964;13.448;2023-02-22T12:55:37;101311.00;;;4.40;100.00
29433;BME280;16405;53.964;13.448;2023-02-22T12:58:42;101320.38;;;4.58;100.00
29433;BME280;16405;53.964;13.448;2023-02-22T13:01:20;101315.28;;;4.47;100.00
29433;BME280;16405;53.964;13.448;2023-02-22T13:03:47;101308.91;;;4.71;100.00
29433;BME280;16405;53.964;13.448;2023-02-22T13:09:12;101315.53;;;4.26;100.00
29433;BME280;16405;53.964;13.448;2023-02-22T13:23:40;101312.63;;;4.50;100.00
29433;BME280;16405;53.964;13.448;2023-02-22T13:26:26;101304.91;;;4.43;100.00
29433;BME280;16405;53.964;13.448;2023-02-22T13:35:00;101303.72;;;4.68;100.00
29433;BME280;16405;53.964;13.448;2023-02-22T13:52:37;101309.94;;;5.20;100.00
29433;BME280;16405;53.964;13.448;2023-02-22T13:55:14;101303.84;;;5.21;100.00
29433;BME280;16405;53.964;13.448;2023-02-22T13:57:44;101304.25;;;4.95;100.00
29433;BME280;16405;53.964;13.448;2023-02-22T14:08:52;101302.28;;;4.44;100.00
29433;BME280;16405;53.964;13.448;2023-02-22T14:11:00;101292.81;;;4.39;100.00
29433;BME280;16405;53.964;13.448;2023-02-22T14:14:08;101295.16;;;4.57;100.00
29433;BME280;16405;53.964;13.448;2023-02-22T14:16:24;101291.69;;;4.57;100.00
29433;BME280;16405;53.964;13.448;2023-02-22T14:22:01;101297.34;;;4.88;100.00
29433;BME280;16405;53.964;13.448;2023-02-22T14:24:30;101298.19;;;4.90;100.00
29433;BME280;16405;53.964;13.448;2023-02-22T14:27:09;101300.66;;;5.01;100.00
29433;BME280;16405;53.964;13.448;2023-02-22T14:29:36;101298.25;;;4.87;100.00
29433;BME280;16405;53.964;13.448;2023-02-22T14:32:06;101298.63;;;5.23;100.00
29433;BME280;16405;53.964;13.448;2023-02-22T14:35:13;101297.81;;;5.16;100.00
29433;BME280;16405;53.964;13.448;2023-02-22T14:37:42;101294.25;;;5.23;100.00
29433;BME280;16405;53.964;13.448;2023-02-22T14:40:28;101287.94;;;4.78;100.00
29433;BME280;16405;53.964;13.448;2023-02-22T14:43:12;101293.88;;;4.87;100.00
29433;BME280;16405;53.964;13.448;2023-02-22T14:45:52;101300.66;;;5.02;100.00
29433;BME280;16405;53.964;13.448;2023-02-22T14:48:26;101284.13;;;5.02;100.00
29433;BME280;16405;53.964;13.448;2023-02-22T14:50:58;101289.75;;;4.72;100.00
29433;BME280;16405;53.964;13.448;2023-02-22T14:53:53;101279.66;;;4.46;100.00
29433;BME280;16405;53.964;13.448;2023-02-22T14:56:38;101280.69;;;4.31;100.00
29433;BME280;16405;53.964;13.448;2023-02-22T14:59:21;101276.19;;;4.47;100.00
29433;BME280;16405;53.964;13.448;2023-02-22T15:02:17;101270.38;;;4.24;100.00
29433;BME280;16405;53.964;13.448;2023-02-22T15:04:51;101265.91;;;4.34;100.00
29433;BME280;16405;53.964;13.448;2023-02-22T15:07:30;101271.81;;;4.46;100.00
29433;BME280;16405;53.964;13.448;2023-02-22T15:10:21;101262.50;;;4.25;100.00